sensor_id;sensor_type;location;lat;lon;timestamp;P1;durP1;ratioP1;P2;durP2;ratioP2
22191;SDS011;11261;52.456;10.850;2023-11-21T00:01:23;17.08;;;6.35;;
22191;SDS011;11261;52.456;10.850;2023-11-21T00:03:52;13.82;;;6.22;;
22191;SDS011;11261;52.456;10.850;2023-11-21T00:06:21;20.00;;;5.97;;
22191;SDS011;11261;52.456;10.850;2023-11-21T00:08:50;19.13;;;5.85;;
22191;SDS011;11261;52.456;10.850;2023-11-21T00:11:19;12.55;;;5.57;;
22191;SDS011;11261;52.456;10.850;2023-11-21T00:13:47;10.60;;;5.65;;
22191;SDS011;11261;52.456;10.850;2023-11-21T00:16:16;15.73;;;5.95;;
22191;SDS011;11261;52.456;10.850;2023-11-21T00:18:45;15.93;;;5.47;;
22191;SDS011;11261;52.456;10.850;2023-11-21T00:21:15;17.60;;;6.05;;
22191;SDS011;11261;52.456;10.850;2023-11-21T00:23:44;14.07;;;5.22;;
22191;SDS011;11261;52.456;10.850;2023-11-21T00:26:13;18.00;;;6.90;;
22191;SDS011;11261;52.456;10.850;2023-11-21T00:28:41;13.07;;;5.75;;
22191;SDS011;11261;52.456;10.850;2023-11-21T00:31:10;12.90;;;6.35;;
22191;SDS011;11261;52.456;10.850;2023-11-21T00:33:40;19.00;;;6.22;;
22191;SDS011;11261;52.456;10.850;2023-11-21T00:36:08;14.43;;;6.30;;
22191;SDS011;11261;52.456;10.850;2023-11-21T00:38:39;23.23;;;7.55;;
22191;SDS011;11261;52.456;10.850;2023-11-21T00:41:07;16.50;;;6.00;;
22191;SDS011;11261;52.456;10.850;2023-11-21T00:43:35;17.10;;;6.68;;
22191;SDS011;11261;52.456;10.850;2023-11-21T00:46:04;18.17;;;6.95;;
22191;SDS011;11261;52.456;10.850;2023-11-21T00:48:33;15.13;;;6.13;;
22191;SDS011;11261;52.456;10.850;2023-11-21T00:51:02;16.73;;;6.18;;
22191;SDS011;11261;52.456;10.850;2023-11-21T00:53:32;16.42;;;6.55;;
22191;SDS011;11261;52.456;10.850;2023-11-21T00:56:02;14.75;;;6.70;;
22191;SDS011;11261;52.456;10.850;2023-11-21T00:58:30;14.60;;;6.20;;
22191;SDS011;11261;52.456;10.850;2023-11-21T01:00:59;15.75;;;6.18;;
22191;SDS011;11261;52.456;10.850;2023-11-21T01:03:27;17.30;;;7.13;;
22191;SDS011;11261;52.456;10.850;2023-11-21T01:05:56;15.68;;;6.28;;
22191;SDS011;11261;52.456;10.850;2023-11-21T01:08:25;16.55;;;7.43;;
22191;SDS011;11261;52.456;10.850;2023-11-21T01:10:54;15.27;;;6.03;;
22191;SDS011;11261;52.456;10.850;2023-11-21T01:13:23;20.08;;;7.05;;
22191;SDS011;11261;52.456;10.850;2023-11-21T01:15:55;14.68;;;6.45;;
22191;SDS011;11261;52.456;10.850;2023-11-21T01:18:23;17.35;;;6.75;;
22191;SDS011;11261;52.456;10.850;2023-11-21T01:20:52;15.32;;;6.88;;
22191;SDS011;11261;52.456;10.850;2023-11-21T01:23:21;16.02;;;6.68;;
22191;SDS011;11261;52.456;10.850;2023-11-21T01:25:49;21.25;;;6.43;;
22191;SDS011;11261;52.456;10.850;2023-11-21T01:28:18;15.52;;;7.25;;
22191;SDS011;11261;52.456;10.850;2023-11-21T01:30:48;15.85;;;6.70;;
22191;SDS011;11261;52.456;10.850;2023-11-21T01:33:17;12.23;;;5.72;;
22191;SDS011;11261;52.456;10.850;2023-11-21T01:35:45;15.27;;;6.57;;
22191;SDS011;11261;52.456;10.850;2023-11-21T01:38:14;16.85;;;7.30;;
22191;SDS011;11261;52.456;10.850;2023-11-21T01:40:44;15.27;;;7.30;;
22191;SDS011;11261;52.456;10.850;2023-11-21T01:43:12;17.67;;;6.78;;
22191;SDS011;11261;52.456;10.850;2023-11-21T01:45:41;15.55;;;6.97;;
22191;SDS011;11261;52.456;10.850;2023-11-21T01:48:13;16.73;;;6.75;;
22191;SDS011;11261;52.456;10.850;2023-11-21T01:50:43;17.40;;;7.03;;
22191;SDS011;11261;52.456;10.850;2023-11-21T01:53:12;15.40;;;6.63;;
22191;SDS011;11261;52.456;10.850;2023-11-21T01:55:41;16.40;;;6.57;;
22191;SDS011;11261;52.456;10.850;2023-11-21T01:58:10;19.83;;;6.75;;
22191;SDS011;11261;52.456;10.850;2023-11-21T02:00:40;17.02;;;6.82;;
22191;SDS011;11261;52.456;10.850;2023-11-21T02:03:09;18.65;;;7.38;;
22191;SDS011;11261;52.456;10.850;2023-11-21T02:05:40;18.25;;;6.57;;
22191;SDS011;11261;52.456;10.850;2023-11-21T02:08:08;21.23;;;7.35;;
22191;SDS011;11261;52.456;10.850;2023-11-21T02:10:37;18.85;;;6.57;;
22191;SDS011;11261;52.456;10.850;2023-11-21T02:13:07;16.80;;;6.60;;
22191;SDS011;11261;52.456;10.850;2023-11-21T02:15:37;15.43;;;6.47;;
22191;SDS011;11261;52.456;10.850;2023-11-21T02:18:06;13.50;;;6.95;;
22191;SDS011;11261;52.456;10.850;2023-11-21T02:20:36;17.77;;;6.80;;
22191;SDS011;11261;52.456;10.850;2023-11-21T02:23:09;20.23;;;7.22;;
22191;SDS011;11261;52.456;10.850;2023-11-21T02:25:39;17.52;;;7.32;;
22191;SDS011;11261;52.456;10.850;2023-11-21T02:28:09;22.00;;;6.85;;
22191;SDS011;11261;52.456;10.850;2023-11-21T02:30:39;13.60;;;7.03;;
22191;SDS011;11261;52.456;10.850;2023-11-21T02:33:08;13.93;;;7.32;;
22191;SDS011;11261;52.456;10.850;2023-11-21T02:35:38;25.58;;;7.72;;
22191;SDS011;11261;52.456;10.850;2023-11-21T02:38:07;16.40;;;6.68;;
22191;SDS011;11261;52.456;10.850;2023-11-21T02:40:37;14.55;;;7.25;;
22191;SDS011;11261;52.456;10.850;2023-11-21T02:43:05;14.38;;;7.25;;
22191;SDS011;11261;52.456;10.850;2023-11-21T02:45:33;15.65;;;6.72;;
22191;SDS011;11261;52.456;10.850;2023-11-21T02:48:02;18.17;;;6.90;;
22191;SDS011;11261;52.456;10.850;2023-11-21T02:50:31;14.90;;;6.50;;
22191;SDS011;11261;52.456;10.850;2023-11-21T02:52:59;13.88;;;6.75;;
22191;SDS011;11261;52.456;10.850;2023-11-21T02:55:28;11.00;;;6.82;;
22191;SDS011;11261;52.456;10.850;2023-11-21T02:57:58;13.75;;;6.97;;
22191;SDS011;11261;52.456;10.850;2023-11-21T03:00:27;16.45;;;7.82;;
22191;SDS011;11261;52.456;10.850;2023-11-21T03:02:55;15.77;;;7.13;;
22191;SDS011;11261;52.456;10.850;2023-11-21T03:05:25;17.00;;;7.30;;
22191;SDS011;11261;52.456;10.850;2023-11-21T03:07:55;13.90;;;6.63;;
22191;SDS011;11261;52.456;10.850;2023-11-21T03:10:24;13.98;;;7.78;;
22191;SDS011;11261;52.456;10.850;2023-11-21T03:12:52;15.13;;;7.30;;
22191;SDS011;11261;52.456;10.850;2023-11-21T03:15:22;16.60;;;7.45;;
22191;SDS011;11261;52.456;10.850;2023-11-21T03:17:50;14.15;;;7.68;;
22191;SDS011;11261;52.456;10.850;2023-11-21T03:20:19;11.38;;;6.57;;
22191;SDS011;11261;52.456;10.850;2023-11-21T03:22:47;16.20;;;7.38;;
22191;SDS011;11261;52.456;10.850;2023-11-21T03:25:16;18.67;;;7.68;;
22191;SDS011;11261;52.456;10.850;2023-11-21T03:27:44;16.60;;;7.90;;
22191;SDS011;11261;52.456;10.850;2023-11-21T03:30:13;18.33;;;7.88;;
22191;SDS011;11261;52.456;10.850;2023-11-21T03:32:43;17.83;;;7.72;;
22191;SDS011;11261;52.456;10.850;2023-11-21T03:35:12;13.73;;;6.38;;
22191;SDS011;11261;52.456;10.850;2023-11-21T03:37:40;19.55;;;7.85;;
22191;SDS011;11261;52.456;10.850;2023-11-21T03:40:10;15.88;;;7.93;;
22191;SDS011;11261;52.456;10.850;2023-11-21T03:42:39;18.63;;;7.55;;
22191;SDS011;11261;52.456;10.850;2023-11-21T03:45:08;14.05;;;6.60;;
22191;SDS011;11261;52.456;10.850;2023-11-21T03:47:39;16.58;;;6.70;;
22191;SDS011;11261;52.456;10.850;2023-11-21T03:50:09;13.95;;;7.32;;
22191;SDS011;11261;52.456;10.850;2023-11-21T03:52:38;12.82;;;6.65;;
22191;SDS011;11261;52.456;10.850;2023-11-21T03:55:06;11.80;;;6.57;;
22191;SDS011;11261;52.456;10.850;2023-11-21T03:57:37;19.13;;;8.18;;
22191;SDS011;11261;52.456;10.850;2023-11-21T04:00:05;21.58;;;8.82;;
22191;SDS011;11261;52.456;10.850;2023-11-21T04:02:36;20.48;;;7.93;;
22191;SDS011;11261;52.456;10.850;2023-11-21T04:05:06;13.68;;;7.05;;
22191;SDS011;11261;52.456;10.850;2023-11-21T04:07:37;14.07;;;6.53;;
22191;SDS011;11261;52.456;10.850;2023-11-21T04:10:06;14.05;;;7.57;;
22191;SDS011;11261;52.456;10.850;2023-11-21T04:12:36;13.90;;;7.95;;
22191;SDS011;11261;52.456;10.850;2023-11-21T04:15:05;20.05;;;8.60;;
22191;SDS011;11261;52.456;10.850;2023-11-21T04:17:35;15.77;;;5.78;;
22191;SDS011;11261;52.456;10.850;2023-11-21T04:20:04;6.53;;;3.03;;
22191;SDS011;11261;52.456;10.850;2023-11-21T04:22:38;6.05;;;2.45;;
22191;SDS011;11261;52.456;10.850;2023-11-21T04:25:11;3.63;;;2.40;;
22191;SDS011;11261;52.456;10.850;2023-11-21T04:27:42;3.67;;;2.03;;
22191;SDS011;11261;52.456;10.850;2023-11-21T04:30:11;4.55;;;2.10;;
22191;SDS011;11261;52.456;10.850;2023-11-21T04:32:40;2.85;;;1.65;;
22191;SDS011;11261;52.456;10.850;2023-11-21T04:35:09;3.30;;;2.00;;
22191;SDS011;11261;52.456;10.850;2023-11-21T04:37:39;3.08;;;2.13;;
22191;SDS011;11261;52.456;10.850;2023-11-21T04:40:08;3.55;;;2.30;;
22191;SDS011;11261;52.456;10.850;2023-11-21T04:42:37;4.90;;;2.38;;
22191;SDS011;11261;52.456;10.850;2023-11-21T04:45:05;4.10;;;2.45;;
22191;SDS011;11261;52.456;10.850;2023-11-21T04:47:39;4.28;;;2.80;;
22191;SDS011;11261;52.456;10.850;2023-11-21T04:50:08;3.08;;;2.05;;
22191;SDS011;11261;52.456;10.850;2023-11-21T04:52:36;4.05;;;2.67;;
22191;SDS011;11261;52.456;10.850;2023-11-21T04:55:07;4.50;;;2.80;;
22191;SDS011;11261;52.456;10.850;2023-11-21T04:57:37;6.78;;;3.58;;
22191;SDS011;11261;52.456;10.850;2023-11-21T05:00:09;5.82;;;3.10;;
22191;SDS011;11261;52.456;10.850;2023-11-21T05:02:39;6.80;;;4.05;;
22191;SDS011;11261;52.456;10.850;2023-11-21T05:05:08;7.20;;;4.32;;
22191;SDS011;11261;52.456;10.850;2023-11-21T05:07:39;6.68;;;3.85;;
22191;SDS011;11261;52.456;10.850;2023-11-21T05:10:08;9.85;;;4.55;;
22191;SDS011;11261;52.456;10.850;2023-11-21T05:12:39;7.88;;;4.75;;
22191;SDS011;11261;52.456;10.850;2023-11-21T05:15:09;8.88;;;5.57;;
22191;SDS011;11261;52.456;10.850;2023-11-21T05:17:41;10.07;;;5.43;;
22191;SDS011;11261;52.456;10.850;2023-11-21T05:20:11;9.50;;;5.70;;
22191;SDS011;11261;52.456;10.850;2023-11-21T05:22:42;13.70;;;7.68;;
22191;SDS011;11261;52.456;10.850;2023-11-21T05:25:11;6.95;;;5.10;;
22191;SDS011;11261;52.456;10.850;2023-11-21T05:27:39;13.65;;;7.25;;
22191;SDS011;11261;52.456;10.850;2023-11-21T05:30:08;6.63;;;3.72;;
22191;SDS011;11261;52.456;10.850;2023-11-21T05:32:39;8.65;;;4.07;;
22191;SDS011;11261;52.456;10.850;2023-11-21T05:35:09;9.30;;;5.85;;
22191;SDS011;11261;52.456;10.850;2023-11-21T05:37:44;11.57;;;7.28;;
22191;SDS011;11261;52.456;10.850;2023-11-21T05:40:13;15.68;;;7.25;;
22191;SDS011;11261;52.456;10.850;2023-11-21T05:42:43;15.32;;;9.32;;
22191;SDS011;11261;52.456;10.850;2023-11-21T05:45:12;16.77;;;7.03;;
22191;SDS011;11261;52.456;10.850;2023-11-21T05:47:41;15.50;;;8.45;;
22191;SDS011;11261;52.456;10.850;2023-11-21T05:50:13;13.75;;;8.60;;
22191;SDS011;11261;52.456;10.850;2023-11-21T05:52:44;14.48;;;8.50;;
22191;SDS011;11261;52.456;10.850;2023-11-21T05:55:13;9.57;;;4.00;;
22191;SDS011;11261;52.456;10.850;2023-11-21T05:57:43;12.35;;;6.72;;
22191;SDS011;11261;52.456;10.850;2023-11-21T06:00:12;15.82;;;7.85;;
22191;SDS011;11261;52.456;10.850;2023-11-21T06:02:47;14.93;;;8.13;;
22191;SDS011;11261;52.456;10.850;2023-11-21T06:05:17;15.02;;;8.98;;
22191;SDS011;11261;52.456;10.850;2023-11-21T06:07:48;10.45;;;6.75;;
22191;SDS011;11261;52.456;10.850;2023-11-21T06:10:16;17.02;;;9.48;;
22191;SDS011;11261;52.456;10.850;2023-11-21T06:12:46;16.02;;;8.77;;
22191;SDS011;11261;52.456;10.850;2023-11-21T06:15:15;20.10;;;8.80;;
22191;SDS011;11261;52.456;10.850;2023-11-21T06:17:45;18.88;;;9.80;;
22191;SDS011;11261;52.456;10.850;2023-11-21T06:20:19;16.20;;;9.80;;
22191;SDS011;11261;52.456;10.850;2023-11-21T06:22:49;19.85;;;10.68;;
22191;SDS011;11261;52.456;10.850;2023-11-21T06:25:19;19.70;;;9.52;;
22191;SDS011;11261;52.456;10.850;2023-11-21T06:27:48;10.60;;;5.63;;
22191;SDS011;11261;52.456;10.850;2023-11-21T06:30:18;16.75;;;9.57;;
22191;SDS011;11261;52.456;10.850;2023-11-21T06:32:47;15.25;;;8.25;;
22191;SDS011;11261;52.456;10.850;2023-11-21T06:35:16;16.73;;;8.65;;
22191;SDS011;11261;52.456;10.850;2023-11-21T06:37:45;15.52;;;9.65;;
22191;SDS011;11261;52.456;10.850;2023-11-21T06:40:19;17.40;;;9.48;;
22191;SDS011;11261;52.456;10.850;2023-11-21T06:42:48;16.05;;;7.85;;
22191;SDS011;11261;52.456;10.850;2023-11-21T06:45:16;13.45;;;6.35;;
22191;SDS011;11261;52.456;10.850;2023-11-21T06:47:47;16.30;;;9.25;;
22191;SDS011;11261;52.456;10.850;2023-11-21T06:50:17;15.50;;;8.18;;
22191;SDS011;11261;52.456;10.850;2023-11-21T06:52:45;16.80;;;9.32;;
22191;SDS011;11261;52.456;10.850;2023-11-21T06:55:14;16.95;;;9.48;;
22191;SDS011;11261;52.456;10.850;2023-11-21T06:57:44;17.67;;;8.43;;
22191;SDS011;11261;52.456;10.850;2023-11-21T07:00:15;10.73;;;5.90;;
22191;SDS011;11261;52.456;10.850;2023-11-21T07:02:45;14.82;;;9.38;;
22191;SDS011;11261;52.456;10.850;2023-11-21T07:05:14;16.50;;;9.80;;
22191;SDS011;11261;52.456;10.850;2023-11-21T07:07:48;17.73;;;8.38;;
22191;SDS011;11261;52.456;10.850;2023-11-21T07:10:20;15.77;;;8.25;;
22191;SDS011;11261;52.456;10.850;2023-11-21T07:12:50;9.48;;;4.70;;
22191;SDS011;11261;52.456;10.850;2023-11-21T07:15:19;17.58;;;8.02;;
22191;SDS011;11261;52.456;10.850;2023-11-21T07:17:48;16.58;;;8.10;;
22191;SDS011;11261;52.456;10.850;2023-11-21T07:20:17;13.57;;;7.72;;
22191;SDS011;11261;52.456;10.850;2023-11-21T07:22:45;9.98;;;6.05;;
22191;SDS011;11261;52.456;10.850;2023-11-21T07:25:14;12.73;;;6.93;;
22191;SDS011;11261;52.456;10.850;2023-11-21T07:27:42;12.38;;;6.07;;
22191;SDS011;11261;52.456;10.850;2023-11-21T07:30:13;9.95;;;6.32;;
22191;SDS011;11261;52.456;10.850;2023-11-21T07:32:42;9.50;;;6.22;;
22191;SDS011;11261;52.456;10.850;2023-11-21T07:35:11;9.68;;;5.40;;
22191;SDS011;11261;52.456;10.850;2023-11-21T07:37:39;12.93;;;6.10;;
22191;SDS011;11261;52.456;10.850;2023-11-21T07:40:09;9.52;;;5.32;;
22191;SDS011;11261;52.456;10.850;2023-11-21T07:42:40;9.48;;;5.20;;
22191;SDS011;11261;52.456;10.850;2023-11-21T07:45:09;10.32;;;5.72;;
22191;SDS011;11261;52.456;10.850;2023-11-21T07:47:39;7.70;;;4.70;;
22191;SDS011;11261;52.456;10.850;2023-11-21T07:50:08;9.60;;;5.80;;
22191;SDS011;11261;52.456;10.850;2023-11-21T07:52:37;9.57;;;5.35;;
22191;SDS011;11261;52.456;10.850;2023-11-21T07:55:06;10.32;;;5.80;;
22191;SDS011;11261;52.456;10.850;2023-11-21T07:57:35;7.55;;;5.10;;
22191;SDS011;11261;52.456;10.850;2023-11-21T08:00:03;9.60;;;5.95;;
22191;SDS011;11261;52.456;10.850;2023-11-21T08:02:36;9.68;;;5.75;;
22191;SDS011;11261;52.456;10.850;2023-11-21T08:05:06;7.60;;;5.00;;
22191;SDS011;11261;52.456;10.850;2023-11-21T08:07:41;9.05;;;4.63;;
22191;SDS011;11261;52.456;10.850;2023-11-21T08:10:09;7.72;;;5.47;;
22191;SDS011;11261;52.456;10.850;2023-11-21T08:12:38;7.93;;;5.28;;
22191;SDS011;11261;52.456;10.850;2023-11-21T08:15:06;6.50;;;4.68;;
22191;SDS011;11261;52.456;10.850;2023-11-21T08:17:35;7.40;;;4.38;;
22191;SDS011;11261;52.456;10.850;2023-11-21T08:20:07;9.73;;;5.43;;
22191;SDS011;11261;52.456;10.850;2023-11-21T08:22:38;7.70;;;4.70;;
22191;SDS011;11261;52.456;10.850;2023-11-21T08:25:08;8.38;;;4.65;;
22191;SDS011;11261;52.456;10.850;2023-11-21T08:27:36;8.93;;;5.50;;
22191;SDS011;11261;52.456;10.850;2023-11-21T08:30:05;7.45;;;4.80;;
22191;SDS011;11261;52.456;10.850;2023-11-21T08:32:35;9.82;;;5.85;;
22191;SDS011;11261;52.456;10.850;2023-11-21T08:35:03;10.40;;;6.00;;
22191;SDS011;11261;52.456;10.850;2023-11-21T08:37:34;7.82;;;4.95;;
22191;SDS011;11261;52.456;10.850;2023-11-21T08:40:04;9.32;;;5.32;;
22191;SDS011;11261;52.456;10.850;2023-11-21T08:42:36;9.27;;;5.43;;
22191;SDS011;11261;52.456;10.850;2023-11-21T08:45:05;8.25;;;5.30;;
22191;SDS011;11261;52.456;10.850;2023-11-21T08:47:35;10.68;;;5.85;;
22191;SDS011;11261;52.456;10.850;2023-11-21T08:50:03;10.50;;;6.30;;
22191;SDS011;11261;52.456;10.850;2023-11-21T08:52:35;8.70;;;5.50;;
22191;SDS011;11261;52.456;10.850;2023-11-21T08:55:04;9.88;;;5.63;;
22191;SDS011;11261;52.456;10.850;2023-11-21T08:57:34;10.57;;;4.90;;
22191;SDS011;11261;52.456;10.850;2023-11-21T09:00:03;8.95;;;5.53;;
22191;SDS011;11261;52.456;10.850;2023-11-21T09:02:35;9.80;;;5.00;;
22191;SDS011;11261;52.456;10.850;2023-11-21T09:05:04;10.90;;;5.80;;
22191;SDS011;11261;52.456;10.850;2023-11-21T09:07:33;6.80;;;3.42;;
22191;SDS011;11261;52.456;10.850;2023-11-21T09:10:03;10.45;;;4.95;;
22191;SDS011;11261;52.456;10.850;2023-11-21T09:12:33;5.00;;;3.40;;
22191;SDS011;11261;52.456;10.850;2023-11-21T09:15:04;9.55;;;5.03;;
22191;SDS011;11261;52.456;10.850;2023-11-21T09:17:34;7.22;;;3.45;;
22191;SDS011;11261;52.456;10.850;2023-11-21T09:20:03;6.40;;;3.92;;
22191;SDS011;11261;52.456;10.850;2023-11-21T09:22:32;7.05;;;4.70;;
22191;SDS011;11261;52.456;10.850;2023-11-21T09:25:01;7.90;;;5.40;;
22191;SDS011;11261;52.456;10.850;2023-11-21T09:27:32;6.97;;;4.97;;
22191;SDS011;11261;52.456;10.850;2023-11-21T09:30:02;6.10;;;4.07;;
22191;SDS011;11261;52.456;10.850;2023-11-21T09:32:31;11.13;;;5.43;;
22191;SDS011;11261;52.456;10.850;2023-11-21T09:35:01;8.18;;;4.68;;
22191;SDS011;11261;52.456;10.850;2023-11-21T09:37:31;9.88;;;7.32;;
22191;SDS011;11261;52.456;10.850;2023-11-21T09:40:00;8.75;;;6.30;;
22191;SDS011;11261;52.456;10.850;2023-11-21T09:42:30;10.18;;;6.10;;
22191;SDS011;11261;52.456;10.850;2023-11-21T09:45:05;9.07;;;5.35;;
22191;SDS011;11261;52.456;10.850;2023-11-21T09:47:44;9.30;;;5.63;;
22191;SDS011;11261;52.456;10.850;2023-11-21T09:50:14;9.07;;;5.65;;
22191;SDS011;11261;52.456;10.850;2023-11-21T09:52:48;7.68;;;5.53;;
22191;SDS011;11261;52.456;10.850;2023-11-21T09:55:24;11.18;;;5.57;;
22191;SDS011;11261;52.456;10.850;2023-11-21T09:57:56;7.75;;;5.18;;
22191;SDS011;11261;52.456;10.850;2023-11-21T10:00:26;9.60;;;5.90;;
22191;SDS011;11261;52.456;10.850;2023-11-21T10:02:55;6.57;;;4.38;;
22191;SDS011;11261;52.456;10.850;2023-11-21T10:05:25;8.30;;;4.10;;
22191;SDS011;11261;52.456;10.850;2023-11-21T10:07:55;9.30;;;5.82;;
22191;SDS011;11261;52.456;10.850;2023-11-21T10:10:25;5.70;;;3.65;;
22191;SDS011;11261;52.456;10.850;2023-11-21T10:12:56;7.22;;;4.68;;
22191;SDS011;11261;52.456;10.850;2023-11-21T10:15:30;6.90;;;4.50;;
22191;SDS011;11261;52.456;10.850;2023-11-21T10:18:02;8.23;;;4.78;;
22191;SDS011;11261;52.456;10.850;2023-11-21T10:20:32;7.63;;;4.53;;
22191;SDS011;11261;52.456;10.850;2023-11-21T10:23:01;6.90;;;4.30;;
22191;SDS011;11261;52.456;10.850;2023-11-21T10:25:30;8.00;;;5.28;;
22191;SDS011;11261;52.456;10.850;2023-11-21T10:27:59;6.03;;;4.65;;
22191;SDS011;11261;52.456;10.850;2023-11-21T10:30:33;5.93;;;3.35;;
22191;SDS011;11261;52.456;10.850;2023-11-21T10:33:03;5.80;;;3.30;;
22191;SDS011;11261;52.456;10.850;2023-11-21T10:35:43;7.05;;;4.20;;
22191;SDS011;11261;52.456;10.850;2023-11-21T10:38:17;7.43;;;5.60;;
22191;SDS011;11261;52.456;10.850;2023-11-21T10:40:47;8.10;;;5.00;;
22191;SDS011;11261;52.456;10.850;2023-11-21T10:43:16;6.85;;;3.83;;
22191;SDS011;11261;52.456;10.850;2023-11-21T10:45:47;9.38;;;4.32;;
22191;SDS011;11261;52.456;10.850;2023-11-21T10:48:15;7.40;;;4.53;;
22191;SDS011;11261;52.456;10.850;2023-11-21T10:50:45;5.60;;;4.32;;
22191;SDS011;11261;52.456;10.850;2023-11-21T10:53:14;4.90;;;3.78;;
22191;SDS011;11261;52.456;10.850;2023-11-21T10:55:43;5.25;;;3.75;;
22191;SDS011;11261;52.456;10.850;2023-11-21T10:58:13;5.25;;;3.58;;
22191;SDS011;11261;52.456;10.850;2023-11-21T11:00:43;6.20;;;4.32;;
22191;SDS011;11261;52.456;10.850;2023-11-21T11:03:14;7.95;;;4.32;;
22191;SDS011;11261;52.456;10.850;2023-11-21T11:05:44;6.18;;;4.50;;
22191;SDS011;11261;52.456;10.850;2023-11-21T11:08:19;6.78;;;4.35;;
22191;SDS011;11261;52.456;10.850;2023-11-21T11:10:54;7.95;;;4.38;;
22191;SDS011;11261;52.456;10.850;2023-11-21T11:13:23;7.85;;;3.72;;
22191;SDS011;11261;52.456;10.850;2023-11-21T11:15:53;5.25;;;3.80;;
22191;SDS011;11261;52.456;10.850;2023-11-21T11:18:30;4.57;;;2.17;;
22191;SDS011;11261;52.456;10.850;2023-11-21T11:21:00;4.35;;;3.42;;
22191;SDS011;11261;52.456;10.850;2023-11-21T11:23:39;3.72;;;2.80;;
22191;SDS011;11261;52.456;10.850;2023-11-21T11:26:16;3.60;;;2.85;;
22191;SDS011;11261;52.456;10.850;2023-11-21T11:28:57;4.05;;;2.88;;
22191;SDS011;11261;52.456;10.850;2023-11-21T11:31:37;4.03;;;2.63;;
22191;SDS011;11261;52.456;10.850;2023-11-21T11:34:20;5.60;;;3.00;;
22191;SDS011;11261;52.456;10.850;2023-11-21T11:36:55;6.32;;;3.35;;
22191;SDS011;11261;52.456;10.850;2023-11-21T11:39:29;5.50;;;3.05;;
22191;SDS011;11261;52.456;10.850;2023-11-21T11:41:59;3.67;;;2.70;;
22191;SDS011;11261;52.456;10.850;2023-11-21T11:44:50;6.03;;;3.30;;
22191;SDS011;11261;52.456;10.850;2023-11-21T11:47:22;2.45;;;1.92;;
22191;SDS011;11261;52.456;10.850;2023-11-21T11:50:01;3.75;;;2.92;;
22191;SDS011;11261;52.456;10.850;2023-11-21T11:52:37;5.45;;;2.95;;
22191;SDS011;11261;52.456;10.850;2023-11-21T11:55:08;4.38;;;2.78;;
22191;SDS011;11261;52.456;10.850;2023-11-21T11:57:41;1.85;;;1.38;;
22191;SDS011;11261;52.456;10.850;2023-11-21T12:00:12;4.45;;;3.08;;
22191;SDS011;11261;52.456;10.850;2023-11-21T12:02:47;6.47;;;2.60;;
22191;SDS011;11261;52.456;10.850;2023-11-21T12:05:18;4.22;;;2.80;;
22191;SDS011;11261;52.456;10.850;2023-11-21T12:07:49;6.53;;;3.72;;
22191;SDS011;11261;52.456;10.850;2023-11-21T12:10:20;3.83;;;2.58;;
22191;SDS011;11261;52.456;10.850;2023-11-21T12:12:52;4.13;;;3.03;;
22191;SDS011;11261;52.456;10.850;2023-11-21T12:15:21;3.40;;;2.13;;
22191;SDS011;11261;52.456;10.850;2023-11-21T12:17:50;1.75;;;1.33;;
22191;SDS011;11261;52.456;10.850;2023-11-21T12:20:21;4.60;;;2.55;;
22191;SDS011;11261;52.456;10.850;2023-11-21T12:22:51;11.35;;;5.40;;
22191;SDS011;11261;52.456;10.850;2023-11-21T12:25:22;8.13;;;3.60;;
22191;SDS011;11261;52.456;10.850;2023-11-21T12:27:55;4.40;;;3.22;;
22191;SDS011;11261;52.456;10.850;2023-11-21T12:30:25;5.30;;;3.05;;
22191;SDS011;11261;52.456;10.850;2023-11-21T12:32:54;2.22;;;1.50;;
22191;SDS011;11261;52.456;10.850;2023-11-21T12:35:26;4.30;;;2.95;;
22191;SDS011;11261;52.456;10.850;2023-11-21T12:37:56;3.83;;;2.50;;
22191;SDS011;11261;52.456;10.850;2023-11-21T12:40:25;3.42;;;2.40;;
22191;SDS011;11261;52.456;10.850;2023-11-21T12:42:55;3.30;;;2.42;;
22191;SDS011;11261;52.456;10.850;2023-11-21T12:45:25;3.97;;;2.70;;
22191;SDS011;11261;52.456;10.850;2023-11-21T12:47:55;3.17;;;2.80;;
22191;SDS011;11261;52.456;10.850;2023-11-21T12:50:28;7.13;;;2.85;;
22191;SDS011;11261;52.456;10.850;2023-11-21T12:53:00;5.28;;;2.78;;
22191;SDS011;11261;52.456;10.850;2023-11-21T12:55:32;4.65;;;2.70;;
22191;SDS011;11261;52.456;10.850;2023-11-21T12:58:05;3.00;;;2.30;;
22191;SDS011;11261;52.456;10.850;2023-11-21T13:00:38;4.80;;;2.50;;
22191;SDS011;11261;52.456;10.850;2023-11-21T13:03:09;4.30;;;2.53;;
22191;SDS011;11261;52.456;10.850;2023-11-21T13:05:45;5.88;;;2.72;;
22191;SDS011;11261;52.456;10.850;2023-11-21T13:08:18;4.72;;;2.67;;
22191;SDS011;11261;52.456;10.850;2023-11-21T13:10:49;8.43;;;2.72;;
22191;SDS011;11261;52.456;10.850;2023-11-21T13:13:21;3.95;;;2.38;;
22191;SDS011;11261;52.456;10.850;2023-11-21T13:15:51;4.05;;;2.42;;
22191;SDS011;11261;52.456;10.850;2023-11-21T13:18:22;4.88;;;2.70;;
22191;SDS011;11261;52.456;10.850;2023-11-21T13:20:55;4.78;;;2.60;;
22191;SDS011;11261;52.456;10.850;2023-11-21T13:23:24;6.93;;;2.17;;
22191;SDS011;11261;52.456;10.850;2023-11-21T13:25:53;3.95;;;2.03;;
22191;SDS011;11261;52.456;10.850;2023-11-21T13:28:30;3.78;;;2.28;;
22191;SDS011;11261;52.456;10.850;2023-11-21T13:31:00;4.78;;;2.17;;
22191;SDS011;11261;52.456;10.850;2023-11-21T13:33:37;3.58;;;2.33;;
22191;SDS011;11261;52.456;10.850;2023-11-21T13:36:08;1.70;;;1.23;;
22191;SDS011;11261;52.456;10.850;2023-11-21T13:38:37;2.47;;;2.10;;
22191;SDS011;11261;52.456;10.850;2023-11-21T13:41:09;2.75;;;2.42;;
22191;SDS011;11261;52.456;10.850;2023-11-21T13:43:40;1.98;;;1.48;;
22191;SDS011;11261;52.456;10.850;2023-11-21T13:46:14;1.77;;;1.65;;
22191;SDS011;11261;52.456;10.850;2023-11-21T13:48:49;2.97;;;1.83;;
22191;SDS011;11261;52.456;10.850;2023-11-21T13:51:24;3.58;;;2.20;;
22191;SDS011;11261;52.456;10.850;2023-11-21T13:54:05;4.57;;;2.92;;
22191;SDS011;11261;52.456;10.850;2023-11-21T13:56:37;3.35;;;2.40;;
22191;SDS011;11261;52.456;10.850;2023-11-21T13:59:06;4.18;;;2.67;;
22191;SDS011;11261;52.456;10.850;2023-11-21T14:01:45;4.47;;;2.28;;
22191;SDS011;11261;52.456;10.850;2023-11-21T14:04:22;4.35;;;2.55;;
22191;SDS011;11261;52.456;10.850;2023-11-21T14:07:19;4.13;;;2.45;;
22191;SDS011;11261;52.456;10.850;2023-11-21T14:09:59;2.75;;;2.30;;
22191;SDS011;11261;52.456;10.850;2023-11-21T14:12:28;3.40;;;2.03;;
22191;SDS011;11261;52.456;10.850;2023-11-21T14:15:04;7.38;;;2.42;;
22191;SDS011;11261;52.456;10.850;2023-11-21T14:17:36;3.78;;;2.50;;
22191;SDS011;11261;52.456;10.850;2023-11-21T14:20:08;2.78;;;1.67;;
22191;SDS011;11261;52.456;10.850;2023-11-21T14:22:44;4.63;;;2.60;;
22191;SDS011;11261;52.456;10.850;2023-11-21T14:25:13;4.22;;;2.58;;
22191;SDS011;11261;52.456;10.850;2023-11-21T14:27:44;2.83;;;1.77;;
22191;SDS011;11261;52.456;10.850;2023-11-21T14:30:12;3.28;;;2.55;;
22191;SDS011;11261;52.456;10.850;2023-11-21T14:32:44;3.05;;;2.22;;
22191;SDS011;11261;52.456;10.850;2023-11-21T14:35:13;3.05;;;2.30;;
22191;SDS011;11261;52.456;10.850;2023-11-21T14:37:42;4.53;;;2.33;;
22191;SDS011;11261;52.456;10.850;2023-11-21T14:40:12;2.88;;;2.17;;
22191;SDS011;11261;52.456;10.850;2023-11-21T14:42:42;3.38;;;2.22;;
22191;SDS011;11261;52.456;10.850;2023-11-21T14:45:14;3.85;;;1.95;;
22191;SDS011;11261;52.456;10.850;2023-11-21T14:47:46;5.38;;;2.50;;